createdAt,value
2023-10-23T00:04:48.322Z,99.90
2023-10-23T00:09:51.399Z,99.90
2023-10-23T00:14:54.108Z,99.90
2023-10-23T00:19:57.050Z,99.90
2023-10-23T00:24:59.852Z,99.90
2023-10-23T00:30:02.752Z,99.90
2023-10-23T00:35:07.126Z,99.90
2023-10-23T00:40:09.978Z,99.90
2023-10-23T00:45:12.722Z,99.90
2023-10-23T00:50:16.998Z,99.90
2023-10-23T00:55:19.740Z,99.90
2023-10-23T01:00:22.980Z,99.90
2023-10-23T01:05:25.801Z,99.90
2023-10-23T01:10:28.672Z,99.90
2023-10-23T01:15:31.395Z,99.90
2023-10-23T01:20:34.749Z,99.90
2023-10-23T01:25:37.713Z,99.90
2023-10-23T01:30:41.876Z,99.90
2023-10-23T01:35:44.723Z,99.90
2023-10-23T01:40:47.402Z,99.90
2023-10-23T01:45:51.137Z,99.90
2023-10-23T01:50:54.360Z,99.90
2023-10-23T01:55:57.244Z,99.90
2023-10-23T02:01:00.169Z,99.90
2023-10-23T02:06:02.783Z,99.90
2023-10-23T02:11:05.544Z,99.90
2023-10-23T02:16:08.725Z,99.90
2023-10-23T02:21:11.846Z,99.90
2023-10-23T02:26:15.992Z,99.90
2023-10-23T02:31:19.018Z,99.90
2023-10-23T02:36:21.756Z,99.90
2023-10-23T02:41:29.288Z,99.90
2023-10-23T02:46:35.953Z,99.90
2023-10-23T02:51:39.813Z,99.90
2023-10-23T02:56:42.801Z,99.90
2023-10-23T03:01:45.868Z,99.90
2023-10-23T03:06:48.754Z,99.90
2023-10-23T03:11:51.525Z,99.90
2023-10-23T03:16:54.201Z,99.90
2023-10-23T03:21:57.744Z,99.90
2023-10-23T03:27:00.782Z,99.90
2023-10-23T03:32:03.622Z,99.90
2023-10-23T03:37:06.392Z,99.90
2023-10-23T03:42:12.181Z,99.90
2023-10-23T03:47:15.011Z,99.90
2023-10-23T03:52:18.361Z,99.90
2023-10-23T03:57:21.123Z,99.90
2023-10-23T04:02:23.966Z,99.90
2023-10-23T04:07:26.712Z,99.90
2023-10-23T04:12:29.462Z,99.90
2023-10-23T04:17:32.531Z,99.90
2023-10-23T04:22:35.649Z,99.90
2023-10-23T04:27:38.436Z,99.90
2023-10-23T04:32:41.059Z,99.90
2023-10-23T04:37:43.814Z,99.90
2023-10-23T04:42:46.386Z,99.90
2023-10-23T04:47:49.122Z,99.90
2023-10-23T04:52:51.758Z,99.90
2023-10-23T04:57:54.488Z,99.90
2023-10-23T05:02:57.803Z,99.90
2023-10-23T05:08:01.520Z,99.90
2023-10-23T05:13:04.955Z,99.90
2023-10-23T05:18:07.812Z,99.90
2023-10-23T05:23:10.931Z,99.90
2023-10-23T05:28:13.907Z,99.90
2023-10-23T05:33:16.606Z,99.90
2023-10-23T05:38:19.527Z,99.90
2023-10-23T05:43:23.850Z,99.90
2023-10-23T05:48:26.934Z,99.90
2023-10-23T05:53:30.114Z,99.90
2023-10-23T05:58:34.098Z,99.90
2023-10-23T06:03:37.864Z,99.90
2023-10-23T06:08:41.625Z,99.90
2023-10-23T06:13:44.482Z,99.90
2023-10-23T06:18:47.482Z,99.90
2023-10-23T06:23:50.513Z,99.90
2023-10-23T06:28:53.764Z,99.90
2023-10-23T06:33:56.918Z,99.90
2023-10-23T06:39:00.520Z,99.90
2023-10-23T06:44:03.438Z,99.90
2023-10-23T06:49:06.520Z,99.90
2023-10-23T06:54:09.819Z,99.90
2023-10-23T06:59:13.446Z,99.90
2023-10-23T07:04:16.290Z,99.90
2023-10-23T07:09:19.196Z,99.90
2023-10-23T07:14:22.502Z,99.90
2023-10-23T07:19:25.505Z,99.90
2023-10-23T07:24:28.301Z,99.90
2023-10-23T07:29:31.907Z,99.90
2023-10-23T07:34:34.922Z,99.90
2023-10-23T07:39:37.963Z,99.90
2023-10-23T07:44:41.051Z,99.90
2023-10-23T07:49:45.288Z,99.90
2023-10-23T07:54:48.576Z,99.90
2023-10-23T07:59:52.860Z,99.90
2023-10-23T08:04:57.611Z,99.90
2023-10-23T08:10:00.529Z,99.90
2023-10-23T08:15:03.924Z,99.90
2023-10-23T08:20:07.595Z,99.90
2023-10-23T08:25:10.772Z,99.90
2023-10-23T08:30:14.129Z,99.90
2023-10-23T08:35:18.156Z,99.90
2023-10-23T08:40:21.512Z,99.90
2023-10-23T08:45:24.629Z,99.90
2023-10-23T08:50:27.748Z,99.90
2023-10-23T08:55:31.884Z,99.90
2023-10-23T09:00:35.231Z,99.90
2023-10-23T09:05:38.123Z,99.90
2023-10-23T09:10:59.969Z,99.90
2023-10-23T09:16:03.027Z,99.90
2023-10-23T09:21:06.255Z,99.90
2023-10-23T09:26:09.302Z,99.90
2023-10-23T09:31:14.290Z,99.90
2023-10-23T09:36:18.092Z,40.00
2023-10-23T09:41:20.994Z,17.30
2023-10-23T09:46:27.201Z,4.40
2023-10-23T09:51:33.599Z,1.00
2023-10-23T09:56:39.959Z,1.00
2023-10-23T10:01:44.186Z,1.00
2023-10-23T10:06:49.747Z,1.00
2023-10-23T10:11:56.277Z,1.00
2023-10-23T10:16:59.538Z,1.00
2023-10-23T10:22:16.605Z,1.00
2023-10-23T10:27:19.870Z,1.00
2023-10-23T10:32:25.225Z,1.00
2023-10-23T10:37:31.740Z,1.00
2023-10-23T10:42:38.380Z,1.00
2023-10-23T10:47:50.762Z,1.00
2023-10-23T10:52:54.085Z,1.00
2023-10-23T10:57:58.623Z,1.00
2023-10-23T11:03:01.708Z,1.00
2023-10-23T11:08:05.285Z,1.00
2023-10-23T11:13:08.421Z,1.00
2023-10-23T11:18:11.603Z,1.00
2023-10-23T11:23:18.646Z,1.00
2023-10-23T11:28:22.742Z,1.00
2023-10-23T11:33:25.733Z,1.00
2023-10-23T11:38:28.573Z,1.00
2023-10-23T11:43:31.359Z,1.00
2023-10-23T11:48:34.271Z,1.00
2023-10-23T11:53:37.196Z,1.00
2023-10-23T11:58:40.203Z,1.00
2023-10-23T12:03:43.159Z,1.00
2023-10-23T12:08:46.267Z,1.00
2023-10-23T12:13:49.231Z,1.00
2023-10-23T12:18:52.327Z,1.00
2023-10-23T12:23:55.741Z,1.00
2023-10-23T12:28:59.517Z,1.00
2023-10-23T12:34:03.042Z,1.00
2023-10-23T12:39:07.773Z,1.00
2023-10-23T12:44:10.731Z,1.00
2023-10-23T12:49:13.738Z,1.00
2023-10-23T12:54:16.688Z,1.00
2023-10-23T12:59:20.077Z,1.00
2023-10-23T13:04:25.116Z,5.80
2023-10-23T13:09:28.909Z,12.60
2023-10-23T13:14:31.907Z,68.40
2023-10-23T13:19:34.758Z,90.90
2023-10-23T13:24:37.630Z,99.90
2023-10-23T13:29:41.038Z,99.90
2023-10-23T13:34:45.299Z,96.80
2023-10-23T13:39:49.855Z,58.00
2023-10-23T13:44:52.970Z,29.70
2023-10-23T13:49:58.805Z,13.80
2023-10-23T13:55:01.933Z,19.20
2023-10-23T14:00:05.527Z,33.40
2023-10-23T14:05:14.417Z,40.60
2023-10-23T14:10:21.022Z,63.20
2023-10-23T14:15:25.450Z,59.20
2023-10-23T14:20:29.657Z,84.40
2023-10-23T14:25:32.557Z,99.90
2023-10-23T14:30:35.621Z,99.90
2023-10-23T14:35:39.087Z,99.90
2023-10-23T14:40:42.493Z,99.90
2023-10-23T14:45:45.549Z,99.90
2023-10-23T14:50:52.202Z,99.90
2023-10-23T14:55:56.037Z,99.90
2023-10-23T15:00:59.419Z,99.90
2023-10-23T15:06:09.606Z,99.90
2023-10-23T15:11:16.565Z,99.90
2023-10-23T15:16:19.619Z,99.90
2023-10-23T15:21:23.837Z,99.90
2023-10-23T15:26:27.222Z,99.90
2023-10-23T15:31:32.576Z,99.90
2023-10-23T15:36:35.596Z,99.90
2023-10-23T15:41:38.979Z,99.90
2023-10-23T15:46:41.949Z,99.90
2023-10-23T15:51:45.075Z,99.90
2023-10-23T15:56:48.294Z,99.90
2023-10-23T16:01:53.574Z,99.90
2023-10-23T16:06:56.735Z,99.90
2023-10-23T16:12:10.386Z,99.90
2023-10-23T16:17:13.876Z,99.90
2023-10-23T16:22:16.860Z,99.90
2023-10-23T16:27:19.896Z,99.90
2023-10-23T16:32:23.426Z,99.90
2023-10-23T16:37:30.606Z,99.90
2023-10-23T16:42:33.933Z,99.90
2023-10-23T16:47:37.665Z,99.90
2023-10-23T16:52:40.707Z,99.90
2023-10-23T16:57:45.449Z,99.90
2023-10-23T17:02:48.570Z,99.90
2023-10-23T17:07:54.428Z,99.90
2023-10-23T17:12:57.551Z,99.90
2023-10-23T17:18:01.089Z,99.90
2023-10-23T17:23:05.133Z,99.90
2023-10-23T17:28:09.780Z,99.90
2023-10-23T17:33:12.944Z,99.90
2023-10-23T17:38:15.779Z,99.90
2023-10-23T17:43:18.913Z,99.90
2023-10-23T17:48:22.040Z,99.90
2023-10-23T17:53:25.628Z,99.90
2023-10-23T17:58:28.974Z,99.90
2023-10-23T18:03:32.135Z,99.90
2023-10-23T18:08:36.043Z,99.90
2023-10-23T18:13:40.094Z,99.90
2023-10-23T18:18:43.115Z,99.90
2023-10-23T18:23:46.121Z,99.90
2023-10-23T18:28:49.275Z,99.90
2023-10-23T18:33:52.969Z,99.90
2023-10-23T18:38:56.217Z,99.90
2023-10-23T18:44:00.754Z,99.90
2023-10-23T18:49:05.899Z,99.90
2023-10-23T18:54:09.375Z,99.90
2023-10-23T18:59:15.408Z,99.90
2023-10-23T19:04:18.934Z,99.90
2023-10-23T19:09:21.996Z,99.90
2023-10-23T19:14:25.044Z,99.90
2023-10-23T19:19:27.911Z,99.90
2023-10-23T19:24:30.797Z,99.90
2023-10-23T19:29:33.563Z,99.90
2023-10-23T19:34:36.639Z,99.90
2023-10-23T19:39:39.909Z,99.90
2023-10-23T19:44:43.538Z,99.90
2023-10-23T19:49:46.717Z,99.90
2023-10-23T19:54:50.373Z,99.90
2023-10-23T19:59:53.951Z,99.90
2023-10-23T20:04:56.999Z,99.90
2023-10-23T20:10:00.384Z,99.90
2023-10-23T20:15:03.836Z,99.90
2023-10-23T20:20:07.821Z,99.90
2023-10-23T20:25:10.780Z,99.90
2023-10-23T20:30:14.791Z,99.90
2023-10-23T20:35:17.875Z,99.90
2023-10-23T20:40:20.923Z,99.90
2023-10-23T20:45:23.749Z,99.90
2023-10-23T20:50:27.231Z,99.90
2023-10-23T20:55:30.023Z,99.90
2023-10-23T21:00:32.886Z,99.90
2023-10-23T21:05:38.813Z,99.90
2023-10-23T21:10:41.689Z,99.90
2023-10-23T21:15:44.854Z,99.90
2023-10-23T21:20:47.823Z,99.90
2023-10-23T21:25:53.510Z,99.90
2023-10-23T21:30:56.580Z,99.90
2023-10-23T21:35:59.496Z,99.90
2023-10-23T21:41:04.551Z,99.90
2023-10-23T21:46:16.061Z,99.90
2023-10-23T21:51:20.259Z,99.90
2023-10-23T21:57:15.270Z,99.90
2023-10-23T22:01:48.550Z,99.90
2023-10-23T22:06:52.641Z,99.90
2023-10-23T22:11:56.078Z,99.90
2023-10-23T22:16:58.966Z,99.90
2023-10-23T22:22:02.626Z,99.90
2023-10-23T22:27:05.621Z,99.90
2023-10-23T22:32:08.285Z,99.90
2023-10-23T22:37:59.638Z,99.90
2023-10-23T22:42:33.617Z,99.90
2023-10-23T22:47:36.889Z,99.90
2023-10-23T22:52:41.226Z,99.90
2023-10-23T22:57:46.498Z,99.90
2023-10-23T23:02:49.719Z,99.90
2023-10-23T23:07:56.139Z,99.90
2023-10-23T23:12:59.103Z,99.90
2023-10-23T23:18:06.662Z,99.90
2023-10-23T23:23:09.912Z,99.90
2023-10-23T23:28:12.635Z,99.90
2023-10-23T23:33:15.434Z,99.90
2023-10-23T23:38:18.161Z,99.90
2023-10-23T23:43:21.435Z,99.90
2023-10-23T23:48:24.795Z,99.90
2023-10-23T23:53:27.990Z,99.90
2023-10-23T23:58:30.867Z,99.90
